Terminal Aerodrome Forecast
Issued by NWS

Home | Current Version | Previous Version | Text Only | Print | Product List | Glossary On
Versions: 1 2 3 4 5 6 7 8 9 10 11 12 13
000
FTUS42 TJSJ 302300
TAFJBQ
TAF
TJBQ 302338Z 3100/3124 19005KT P6SM BKN040 OVC100
     FM310100 10005KT P6SM FEW040
     FM311450 05014G21KT P6SM SCT025
      AMD NOT SKED 3102/3111=

USA.gov is the U.S. government's official web portal to all federal, state and local government web resources and services.